createdAt,value
2018-07-07T00:00:22.222Z,2.93
2018-07-07T00:02:51.146Z,3.30
2018-07-07T00:05:19.949Z,3.00
2018-07-07T00:07:48.757Z,3.40
2018-07-07T00:10:17.654Z,3.47
2018-07-07T00:12:46.484Z,3.37
2018-07-07T00:15:18.149Z,3.33
2018-07-07T00:17:47.465Z,3.50
2018-07-07T00:20:16.739Z,2.87
2018-07-07T00:22:45.945Z,3.37
2018-07-07T00:25:16.782Z,3.27
2018-07-07T00:27:46.376Z,3.17
2018-07-07T00:30:15.471Z,2.77
2018-07-07T00:32:44.350Z,2.77
2018-07-07T00:35:13.458Z,4.00
2018-07-07T00:37:42.246Z,3.13
2018-07-07T00:40:11.540Z,3.40
2018-07-07T00:42:40.749Z,4.00
2018-07-07T00:45:09.562Z,3.23
2018-07-07T00:47:38.398Z,3.60
2018-07-07T00:50:07.768Z,3.43
2018-07-07T00:52:36.566Z,2.93
2018-07-07T00:55:05.393Z,3.37
2018-07-07T00:57:34.249Z,3.10
2018-07-07T01:00:03.143Z,2.80
2018-07-07T01:02:31.982Z,3.10
2018-07-07T01:05:00.790Z,3.17
2018-07-07T01:07:29.668Z,3.13
2018-07-07T01:09:58.430Z,3.13
2018-07-07T01:12:27.194Z,2.90
2018-07-07T01:14:55.974Z,3.30
2018-07-07T01:17:24.755Z,3.27
2018-07-07T01:19:53.549Z,3.47
2018-07-07T01:22:22.346Z,3.33
2018-07-07T01:24:51.138Z,3.03
2018-07-07T01:27:19.890Z,3.00
2018-07-07T01:29:48.650Z,2.97
2018-07-07T01:32:17.417Z,3.10
2018-07-07T01:34:46.162Z,2.70
2018-07-07T01:37:14.942Z,3.40
2018-07-07T01:39:43.710Z,2.50
2018-07-07T01:42:12.490Z,3.57
2018-07-07T01:44:41.250Z,3.10
2018-07-07T01:47:10.019Z,3.30
2018-07-07T01:49:39.302Z,3.30
2018-07-07T01:52:08.949Z,3.43
2018-07-07T01:54:37.716Z,3.40
2018-07-07T01:57:06.515Z,2.77
2018-07-07T01:59:35.316Z,2.90
2018-07-07T02:02:04.122Z,2.90
2018-07-07T02:04:32.920Z,3.30
2018-07-07T02:07:01.712Z,3.40
2018-07-07T02:09:30.489Z,2.80
2018-07-07T02:11:59.287Z,3.10
2018-07-07T02:14:28.078Z,2.77
2018-07-07T02:16:56.846Z,2.67
2018-07-07T02:19:25.604Z,3.07
2018-07-07T02:21:54.390Z,2.63
2018-07-07T02:24:23.176Z,2.70
2018-07-07T02:26:52.054Z,2.67
2018-07-07T02:29:20.869Z,3.10
2018-07-07T02:31:49.659Z,2.57
2018-07-07T02:34:18.447Z,2.93
2018-07-07T02:36:47.236Z,2.73
2018-07-07T02:39:15.998Z,2.77
2018-07-07T02:41:44.776Z,3.17
2018-07-07T02:44:13.585Z,2.83
2018-07-07T02:46:42.365Z,2.80
2018-07-07T02:49:11.126Z,2.57
2018-07-07T02:51:39.886Z,2.50
2018-07-07T02:54:08.715Z,2.80
2018-07-07T02:56:37.531Z,2.90
2018-07-07T02:59:06.314Z,2.63
2018-07-07T03:01:35.130Z,2.60
2018-07-07T03:04:03.894Z,2.73
2018-07-07T03:06:32.694Z,2.60
2018-07-07T03:09:01.526Z,2.63
2018-07-07T03:11:30.352Z,2.40
2018-07-07T03:13:59.159Z,2.63
2018-07-07T03:16:27.950Z,2.47
2018-07-07T03:18:56.722Z,2.90
2018-07-07T03:21:25.577Z,2.73
2018-07-07T03:23:54.366Z,2.47
2018-07-07T03:26:23.142Z,2.70
2018-07-07T03:28:52.153Z,2.50
2018-07-07T03:31:20.942Z,2.70
2018-07-07T03:33:49.697Z,2.47
2018-07-07T03:36:18.449Z,2.70
2018-07-07T03:38:47.246Z,2.57
2018-07-07T03:41:16.018Z,2.43
2018-07-07T03:43:44.794Z,2.30
2018-07-07T03:46:13.655Z,2.60
2018-07-07T03:48:42.442Z,2.43
2018-07-07T03:51:11.220Z,2.13
2018-07-07T03:53:40.043Z,2.23
2018-07-07T03:56:08.842Z,2.20
2018-07-07T03:58:37.674Z,2.00
2018-07-07T04:01:06.497Z,2.10
2018-07-07T04:03:35.245Z,1.77
2018-07-07T04:06:04.021Z,2.20
2018-07-07T04:08:32.394Z,1.90
2018-07-07T04:11:01.158Z,2.07
2018-07-07T04:13:29.933Z,1.73
2018-07-07T04:15:58.705Z,1.70
2018-07-07T04:18:32.196Z,1.77
2018-07-07T04:21:02.007Z,1.87
2018-07-07T04:23:31.504Z,1.40
2018-07-07T04:26:00.695Z,1.33
2018-07-07T04:28:30.094Z,1.43
2018-07-07T04:30:59.459Z,1.47
2018-07-07T04:33:28.701Z,1.30
2018-07-07T04:35:57.486Z,1.13
2018-07-07T04:38:26.306Z,1.50
2018-07-07T04:40:55.070Z,1.60
2018-07-07T04:43:23.830Z,1.60
2018-07-07T04:45:52.649Z,1.27
2018-07-07T04:48:21.395Z,1.50
2018-07-07T04:50:50.218Z,1.90
2018-07-07T04:53:18.982Z,1.37
2018-07-07T04:55:47.818Z,1.67
2018-07-07T04:58:16.581Z,1.40
2018-07-07T05:00:45.316Z,1.50
2018-07-07T05:03:14.125Z,1.60
2018-07-07T05:05:42.886Z,1.80
2018-07-07T05:08:11.744Z,1.70
2018-07-07T05:10:40.514Z,1.93
2018-07-07T05:13:09.298Z,1.40
2018-07-07T05:15:38.285Z,1.50
2018-07-07T05:18:07.083Z,1.70
2018-07-07T05:20:35.878Z,1.80
2018-07-07T05:23:04.693Z,1.63
2018-07-07T05:25:33.491Z,1.93
2018-07-07T05:28:02.263Z,1.67
2018-07-07T05:30:31.065Z,2.03
2018-07-07T05:32:59.890Z,1.53
2018-07-07T05:35:28.707Z,1.70
2018-07-07T05:37:57.485Z,1.73
2018-07-07T05:40:26.242Z,1.83
2018-07-07T05:42:55.022Z,1.80
2018-07-07T05:45:23.806Z,1.73
2018-07-07T05:47:52.625Z,1.70
2018-07-07T05:50:21.429Z,1.60
2018-07-07T05:52:50.186Z,2.13
2018-07-07T05:55:18.999Z,1.90
2018-07-07T05:57:47.784Z,2.03
2018-07-07T06:00:16.822Z,2.00
2018-07-07T06:02:45.594Z,2.10
2018-07-07T06:05:14.420Z,1.83
2018-07-07T06:07:43.410Z,2.00
2018-07-07T06:10:12.251Z,1.93
2018-07-07T06:12:41.046Z,1.90
2018-07-07T06:15:10.094Z,1.93
2018-07-07T06:17:38.935Z,1.70
2018-07-07T06:20:07.704Z,1.73
2018-07-07T06:22:36.507Z,1.80
2018-07-07T06:25:05.338Z,1.87
2018-07-07T06:27:34.119Z,1.70
2018-07-07T06:30:02.910Z,1.93
2018-07-07T06:32:31.706Z,1.93
2018-07-07T06:35:00.487Z,2.00
2018-07-07T06:37:29.250Z,1.97
2018-07-07T06:39:58.838Z,2.27
2018-07-07T06:42:27.614Z,2.00
2018-07-07T06:44:56.399Z,2.93
2018-07-07T06:47:25.260Z,2.50
2018-07-07T06:49:54.031Z,2.00
2018-07-07T06:52:22.910Z,1.83
2018-07-07T06:54:51.722Z,1.97
2018-07-07T06:57:20.583Z,1.93
2018-07-07T06:59:49.427Z,1.97
2018-07-07T07:02:18.206Z,2.30
2018-07-07T07:04:46.982Z,2.20
2018-07-07T07:07:15.882Z,2.00
2018-07-07T07:09:44.869Z,2.30
2018-07-07T07:12:13.684Z,2.57
2018-07-07T07:14:42.451Z,1.83
2018-07-07T07:17:11.230Z,2.17
2018-07-07T07:19:39.984Z,2.20
2018-07-07T07:22:08.762Z,2.07
2018-07-07T07:24:37.535Z,1.77
2018-07-07T07:27:06.306Z,2.40
2018-07-07T07:29:35.104Z,1.70
2018-07-07T07:32:03.910Z,2.20
2018-07-07T07:34:32.680Z,2.00
2018-07-07T07:37:01.506Z,1.90
2018-07-07T07:39:30.378Z,2.07
2018-07-07T07:41:59.187Z,2.40
2018-07-07T07:44:27.964Z,2.60
2018-07-07T07:46:56.810Z,2.60
2018-07-07T07:49:25.591Z,2.43
2018-07-07T07:51:54.434Z,2.60
2018-07-07T07:54:23.279Z,2.53
2018-07-07T07:56:52.066Z,2.70
2018-07-07T07:59:20.829Z,2.20
2018-07-07T08:01:49.618Z,2.60
2018-07-07T08:04:18.863Z,2.40
2018-07-07T08:06:47.773Z,3.13
2018-07-07T08:09:16.750Z,2.87
2018-07-07T08:11:45.649Z,2.30
2018-07-07T08:14:14.519Z,3.20
2018-07-07T08:16:43.365Z,2.90
2018-07-07T08:19:12.128Z,3.20
2018-07-07T08:21:40.925Z,2.47
2018-07-07T08:24:09.723Z,2.50
2018-07-07T08:26:38.489Z,3.03
2018-07-07T08:29:07.258Z,3.07
2018-07-07T08:31:36.049Z,2.50
2018-07-07T08:34:04.848Z,3.37
2018-07-07T08:36:33.681Z,3.10
2018-07-07T08:39:02.530Z,2.90
2018-07-07T08:41:31.358Z,3.00
2018-07-07T08:44:00.143Z,3.50
2018-07-07T08:46:28.970Z,2.70
2018-07-07T08:48:57.732Z,3.30
2018-07-07T08:51:26.514Z,3.83
2018-07-07T08:53:55.273Z,4.60
2018-07-07T08:56:30.456Z,3.67
2018-07-07T08:58:59.246Z,3.63
2018-07-07T09:01:28.059Z,3.20
2018-07-07T09:03:56.862Z,3.60
2018-07-07T09:06:25.636Z,3.40
2018-07-07T09:08:54.430Z,3.27
2018-07-07T09:11:23.249Z,3.43
2018-07-07T09:13:52.074Z,3.40
2018-07-07T09:16:20.858Z,3.83
2018-07-07T09:18:49.670Z,3.60
2018-07-07T09:21:18.584Z,3.43
2018-07-07T09:23:47.726Z,3.60
2018-07-07T09:26:16.506Z,3.50
2018-07-07T09:28:45.320Z,3.97
2018-07-07T09:31:14.086Z,3.13
2018-07-07T09:33:42.865Z,3.47
2018-07-07T09:36:11.699Z,3.27
2018-07-07T09:38:40.480Z,3.30
2018-07-07T09:41:09.246Z,3.27
2018-07-07T09:43:38.042Z,3.50
2018-07-07T09:46:06.812Z,4.00
2018-07-07T09:48:35.617Z,3.80
2018-07-07T09:51:04.524Z,3.30
2018-07-07T09:53:33.330Z,3.57
2018-07-07T09:56:02.097Z,3.30
2018-07-07T09:58:30.871Z,3.60
2018-07-07T10:00:59.674Z,3.30
2018-07-07T10:03:28.397Z,3.43
2018-07-07T10:05:57.220Z,3.63
2018-07-07T10:08:25.982Z,3.43
2018-07-07T10:10:54.766Z,3.27
2018-07-07T10:13:23.179Z,3.70
2018-07-07T10:15:51.959Z,3.23
2018-07-07T10:18:20.773Z,3.20
2018-07-07T10:20:49.530Z,3.37
2018-07-07T10:23:18.414Z,3.60
2018-07-07T10:25:47.236Z,3.67
2018-07-07T10:28:16.015Z,4.70
2018-07-07T10:30:44.807Z,4.03
2018-07-07T10:33:13.638Z,3.13
2018-07-07T10:35:42.462Z,3.13
2018-07-07T10:38:11.272Z,3.80
2018-07-07T10:40:40.482Z,4.03
2018-07-07T10:43:09.316Z,4.00
2018-07-07T10:45:38.196Z,3.63
2018-07-07T10:48:06.954Z,3.57
2018-07-07T10:50:35.732Z,3.53
2018-07-07T10:53:04.619Z,3.80
2018-07-07T10:55:33.448Z,3.70
2018-07-07T10:58:02.238Z,3.97
2018-07-07T11:00:31.055Z,3.50
2018-07-07T11:02:59.895Z,3.53
2018-07-07T11:05:28.948Z,3.60
2018-07-07T11:07:57.790Z,3.53
2018-07-07T11:10:26.567Z,3.60
2018-07-07T11:12:55.342Z,3.90
2018-07-07T11:15:24.172Z,3.90
2018-07-07T11:17:52.988Z,4.10
2018-07-07T11:20:21.780Z,3.93
2018-07-07T11:22:50.622Z,4.00
2018-07-07T11:25:19.466Z,3.67
2018-07-07T11:27:48.341Z,4.80
2018-07-07T11:30:17.097Z,4.00
2018-07-07T11:32:45.927Z,4.07
2018-07-07T11:35:14.723Z,4.00
2018-07-07T11:37:43.641Z,3.90
2018-07-07T11:40:12.462Z,4.40
2018-07-07T11:42:41.370Z,3.90
2018-07-07T11:45:10.189Z,3.97
2018-07-07T11:47:39.113Z,3.40
2018-07-07T11:50:07.931Z,3.87
2018-07-07T11:52:36.719Z,3.70
2018-07-07T11:55:05.562Z,3.93
2018-07-07T11:57:34.644Z,4.00
2018-07-07T12:00:03.635Z,3.70
2018-07-07T12:02:32.483Z,3.50
2018-07-07T12:05:01.282Z,4.20
2018-07-07T12:07:30.075Z,4.07
2018-07-07T12:09:58.869Z,4.03
2018-07-07T12:12:27.678Z,4.23
2018-07-07T12:14:56.554Z,3.80
2018-07-07T12:17:28.384Z,4.50
2018-07-07T12:19:57.287Z,4.20
2018-07-07T12:22:26.387Z,4.30
2018-07-07T12:24:55.251Z,3.70
2018-07-07T12:27:24.013Z,3.07
2018-07-07T12:29:52.922Z,2.77
2018-07-07T12:32:21.779Z,2.77
2018-07-07T12:34:50.738Z,7.07
2018-07-07T12:37:19.721Z,4.13
2018-07-07T12:39:48.541Z,2.50
2018-07-07T12:42:17.398Z,2.00
2018-07-07T12:44:46.383Z,2.00
2018-07-07T12:47:15.271Z,2.40
2018-07-07T12:49:44.053Z,2.37
2018-07-07T12:52:12.870Z,2.17
2018-07-07T12:54:41.676Z,2.63
2018-07-07T12:57:10.491Z,2.23
2018-07-07T12:59:38.889Z,2.40
2018-07-07T13:02:07.686Z,10.37
2018-07-07T13:04:36.458Z,1.90
2018-07-07T13:07:05.536Z,2.00
2018-07-07T13:09:34.246Z,2.47
2018-07-07T13:12:03.057Z,2.27
2018-07-07T13:14:31.871Z,2.23
2018-07-07T13:17:00.654Z,2.60
2018-07-07T13:19:29.448Z,2.30
2018-07-07T13:21:58.278Z,1.80
2018-07-07T13:24:27.173Z,1.77
2018-07-07T13:26:55.969Z,2.00
2018-07-07T13:29:24.802Z,2.93
2018-07-07T13:31:53.601Z,2.10
2018-07-07T13:34:22.438Z,2.33
2018-07-07T13:36:51.233Z,2.40
2018-07-07T13:39:20.042Z,2.40
2018-07-07T13:41:48.844Z,2.80
2018-07-07T13:44:17.622Z,2.87
2018-07-07T13:46:46.414Z,2.47
2018-07-07T13:49:15.219Z,2.13
2018-07-07T13:51:44.006Z,2.17
2018-07-07T13:54:12.489Z,2.00
2018-07-07T13:56:41.254Z,1.90
2018-07-07T13:59:10.039Z,1.90
2018-07-07T14:01:38.862Z,2.13
2018-07-07T14:04:07.746Z,1.87
2018-07-07T14:06:36.534Z,2.43
2018-07-07T14:09:06.171Z,2.20
2018-07-07T14:11:34.989Z,2.20
2018-07-07T14:14:03.827Z,2.37
2018-07-07T14:16:32.652Z,2.50
2018-07-07T14:19:01.476Z,2.23
2018-07-07T14:21:30.297Z,2.27
2018-07-07T14:23:59.113Z,2.40
2018-07-07T14:26:27.988Z,2.10
2018-07-07T14:28:56.981Z,2.10
2018-07-07T14:31:25.750Z,2.00
2018-07-07T14:33:54.574Z,2.23
2018-07-07T14:36:23.360Z,2.00
2018-07-07T14:38:52.182Z,1.60
2018-07-07T14:41:22.370Z,2.07
2018-07-07T14:44:01.791Z,1.70
2018-07-07T14:46:31.118Z,1.80
2018-07-07T14:48:59.930Z,2.63
2018-07-07T14:51:28.762Z,2.73
2018-07-07T14:53:57.562Z,2.20
2018-07-07T14:56:27.198Z,2.23
2018-07-07T14:58:56.062Z,2.20
2018-07-07T15:01:24.850Z,2.10
2018-07-07T15:03:53.650Z,2.20
2018-07-07T15:06:22.495Z,2.77
2018-07-07T15:08:51.374Z,2.23
2018-07-07T15:11:20.191Z,2.20
2018-07-07T15:13:48.995Z,2.60
2018-07-07T15:16:17.798Z,2.70
2018-07-07T15:18:46.614Z,2.80
2018-07-07T15:21:15.402Z,2.60
2018-07-07T15:23:43.826Z,2.33
2018-07-07T15:26:12.626Z,2.57
2018-07-07T15:28:41.527Z,2.90
2018-07-07T15:31:10.383Z,5.00
2018-07-07T15:33:39.182Z,2.90
2018-07-07T15:36:08.011Z,2.83
2018-07-07T15:38:36.805Z,3.50
2018-07-07T15:41:05.662Z,3.70
2018-07-07T15:43:34.450Z,5.00
2018-07-07T15:46:03.382Z,5.07
2018-07-07T15:48:32.124Z,4.60
2018-07-07T15:51:00.950Z,4.57
2018-07-07T15:53:29.762Z,3.73
2018-07-07T15:55:58.561Z,4.40
2018-07-07T15:58:27.349Z,4.47
2018-07-07T16:00:56.162Z,5.13
2018-07-07T16:03:24.974Z,4.83
2018-07-07T16:05:53.790Z,4.60
2018-07-07T16:08:22.702Z,4.10
2018-07-07T16:10:51.506Z,4.73
2018-07-07T16:13:20.278Z,4.00
2018-07-07T16:15:49.088Z,4.23
2018-07-07T16:18:17.959Z,4.43
2018-07-07T16:20:46.737Z,4.00
2018-07-07T16:23:15.620Z,4.70
2018-07-07T16:25:44.422Z,4.03
2018-07-07T16:28:13.238Z,3.80
2018-07-07T16:30:42.014Z,3.97
2018-07-07T16:33:10.848Z,4.03
2018-07-07T16:35:41.242Z,4.07
2018-07-07T16:38:10.142Z,4.30
2018-07-07T16:40:39.118Z,4.00
2018-07-07T16:43:08.023Z,4.13
2018-07-07T16:45:36.902Z,4.50
2018-07-07T16:48:06.126Z,3.97
2018-07-07T16:50:35.053Z,4.10
2018-07-07T16:53:10.191Z,3.63
2018-07-07T16:55:39.094Z,3.67
2018-07-07T16:58:08.006Z,3.90
2018-07-07T17:00:37.210Z,4.03
2018-07-07T17:03:06.888Z,4.80
2018-07-07T17:05:35.822Z,3.87
2018-07-07T17:08:04.646Z,4.20
2018-07-07T17:10:33.606Z,4.17
2018-07-07T17:13:02.610Z,4.83
2018-07-07T17:15:32.639Z,4.07
2018-07-07T17:18:03.165Z,4.27
2018-07-07T17:20:32.127Z,3.83
2018-07-07T17:23:01.058Z,3.83
2018-07-07T17:25:29.950Z,3.40
2018-07-07T17:27:58.866Z,3.97
2018-07-07T17:30:27.725Z,4.37
2018-07-07T17:32:57.070Z,4.70
2018-07-07T17:35:26.006Z,4.60
2018-07-07T17:37:55.011Z,5.33
2018-07-07T17:40:23.927Z,4.60
2018-07-07T17:42:52.886Z,4.23
2018-07-07T17:45:21.806Z,4.60
2018-07-07T17:47:50.873Z,4.87
2018-07-07T17:50:19.658Z,5.27
2018-07-07T17:52:48.483Z,4.93
2018-07-07T17:55:17.849Z,5.13
2018-07-07T17:57:46.719Z,5.43
2018-07-07T18:00:15.608Z,4.90
2018-07-07T18:02:44.406Z,5.00
2018-07-07T18:05:13.215Z,4.23
2018-07-07T18:07:42.072Z,5.13
2018-07-07T18:10:10.870Z,4.90
2018-07-07T18:12:39.621Z,5.23
2018-07-07T18:15:08.509Z,4.30
2018-07-07T18:17:37.315Z,4.70
2018-07-07T18:20:06.202Z,4.20
2018-07-07T18:22:35.010Z,4.40
2018-07-07T18:25:03.856Z,4.57
2018-07-07T18:27:32.653Z,4.67
2018-07-07T18:30:01.466Z,4.77
2018-07-07T18:32:30.281Z,4.00
2018-07-07T18:34:59.279Z,3.73
2018-07-07T18:37:28.205Z,4.23
2018-07-07T18:39:57.006Z,3.97
2018-07-07T18:42:26.050Z,4.13
2018-07-07T18:44:55.121Z,4.63
2018-07-07T18:47:23.938Z,4.67
2018-07-07T18:49:52.749Z,4.40
2018-07-07T18:52:21.582Z,4.47
2018-07-07T18:54:50.400Z,4.47
2018-07-07T18:57:19.211Z,4.27
2018-07-07T18:59:48.003Z,3.57
2018-07-07T19:02:16.766Z,4.00
2018-07-07T19:04:45.644Z,4.10
2018-07-07T19:07:14.442Z,4.40
2018-07-07T19:09:43.262Z,3.90
2018-07-07T19:12:12.071Z,4.10
2018-07-07T19:14:40.897Z,5.00
2018-07-07T19:17:10.150Z,5.47
2018-07-07T19:19:38.970Z,4.57
2018-07-07T19:22:12.903Z,5.00
2018-07-07T19:24:46.874Z,5.47
2018-07-07T19:27:15.954Z,5.53
2018-07-07T19:29:44.790Z,4.60
2018-07-07T19:33:22.331Z,4.57
2018-07-07T19:35:56.386Z,4.50
2018-07-07T19:38:25.382Z,4.57
2018-07-07T19:40:54.182Z,4.27
2018-07-07T19:43:22.958Z,4.70
2018-07-07T19:45:52.114Z,4.63
2018-07-07T19:48:21.086Z,4.50
2018-07-07T19:50:50.089Z,4.03
2018-07-07T19:53:19.078Z,4.23
2018-07-07T19:55:48.078Z,4.33
2018-07-07T19:58:16.912Z,5.13
2018-07-07T20:00:45.738Z,5.20
2018-07-07T20:03:14.551Z,4.40
2018-07-07T20:05:43.350Z,4.47
2018-07-07T20:08:12.175Z,4.50
2018-07-07T20:10:40.945Z,4.30
2018-07-07T20:13:09.775Z,4.50
2018-07-07T20:15:49.654Z,4.23
2018-07-07T20:18:18.442Z,4.50
2018-07-07T20:22:05.874Z,4.80
2018-07-07T20:24:37.951Z,5.10
2018-07-07T20:27:12.788Z,5.13
2018-07-07T20:29:41.626Z,4.90
2018-07-07T20:32:15.770Z,5.10
2018-07-07T20:34:44.574Z,5.17
2018-07-07T20:37:13.381Z,5.47
2018-07-07T20:39:42.195Z,5.03
2018-07-07T20:42:10.993Z,5.23
2018-07-07T20:44:39.833Z,4.93
2018-07-07T20:47:08.630Z,4.97
2018-07-07T20:49:37.437Z,5.03
2018-07-07T20:52:06.284Z,4.90
2018-07-07T20:54:35.158Z,5.10
2018-07-07T20:57:03.947Z,4.97
2018-07-07T20:59:32.747Z,4.17
2018-07-07T21:02:01.643Z,4.70
2018-07-07T21:04:30.445Z,4.90
2018-07-07T21:06:59.226Z,4.03
2018-07-07T21:09:28.150Z,4.57
2018-07-07T21:11:57.009Z,4.40
2018-07-07T21:14:25.846Z,4.50
2018-07-07T21:16:54.730Z,5.30
2018-07-07T21:19:23.552Z,4.17
2018-07-07T21:21:52.330Z,4.03
2018-07-07T21:24:21.108Z,3.90
2018-07-07T21:26:49.936Z,3.70
2018-07-07T21:29:18.709Z,3.87
2018-07-07T21:31:47.546Z,4.27
2018-07-07T21:34:16.381Z,3.53
2018-07-07T21:36:45.226Z,3.90
2018-07-07T21:39:14.033Z,3.97
2018-07-07T21:41:42.851Z,3.80
2018-07-07T21:44:11.677Z,4.03
2018-07-07T21:46:40.511Z,3.47
2018-07-07T21:49:09.379Z,3.40
2018-07-07T21:51:38.282Z,3.40
2018-07-07T21:54:07.138Z,3.30
2018-07-07T21:56:35.997Z,3.00
2018-07-07T21:59:10.023Z,2.60
2018-07-07T22:01:54.722Z,3.13
2018-07-07T22:04:29.545Z,3.10
2018-07-07T22:07:03.865Z,2.80
2018-07-07T22:09:33.928Z,3.10
2018-07-07T22:12:02.786Z,3.00
2018-07-07T22:14:31.926Z,2.60
2018-07-07T22:17:00.774Z,2.87
2018-07-07T22:19:29.659Z,2.57
2018-07-07T22:22:02.468Z,2.83
2018-07-07T22:24:31.314Z,2.40
2018-07-07T22:27:04.347Z,2.37
2018-07-07T22:29:33.186Z,3.03
2018-07-07T22:32:04.253Z,2.30
2018-07-07T22:34:35.329Z,2.93
2018-07-07T22:37:04.158Z,2.50
2018-07-07T22:39:35.965Z,2.90
2018-07-07T22:42:05.986Z,2.63
2018-07-07T22:44:35.611Z,2.97
2018-07-07T22:47:04.563Z,2.30
2018-07-07T22:49:33.514Z,2.93
2018-07-07T22:52:02.362Z,3.10
2018-07-07T22:54:31.237Z,2.67
2018-07-07T22:57:00.058Z,3.00
2018-07-07T22:59:28.855Z,3.27
2018-07-07T23:01:57.698Z,2.87
2018-07-07T23:04:26.454Z,2.07
2018-07-07T23:06:55.215Z,2.47
2018-07-07T23:09:24.073Z,2.83
2018-07-07T23:11:52.922Z,2.90
2018-07-07T23:14:21.722Z,2.70
2018-07-07T23:16:50.535Z,3.07
2018-07-07T23:19:19.356Z,2.47
2018-07-07T23:21:48.218Z,2.40
2018-07-07T23:24:17.081Z,3.17
2018-07-07T23:26:45.850Z,2.43
2018-07-07T23:29:14.654Z,2.90
2018-07-07T23:31:43.511Z,2.90
2018-07-07T23:34:12.378Z,2.80
2018-07-07T23:36:41.182Z,2.87
2018-07-07T23:39:09.927Z,2.97
2018-07-07T23:41:38.750Z,2.77
2018-07-07T23:44:07.512Z,2.23
2018-07-07T23:46:36.346Z,2.60
2018-07-07T23:49:05.296Z,2.80
2018-07-07T23:51:34.054Z,2.60
2018-07-07T23:54:03.018Z,2.87
2018-07-07T23:56:31.858Z,2.80
2018-07-07T23:59:00.642Z,2.67
